Time;durP1;ratioP1;P1;durP2;ratioP2;P2;SDS_P1;SDS_P2;PMS_P1;PMS_P2;Temp;Humidity;BMP_temperature;BMP_pressure;BME280_temperature;BME280_humidity;BME280_pressure;Samples;Min_cycle;Max_cycle;Signal;HPM_P1;HPM_P2
2021/11/12 00:13:25;;;;;;;37.17;21.83;;;4.00;99.90;;;;;;5094599;28;20324;-84
2021/11/12 00:15:54;;;;;;;39.30;21.67;;;4.00;99.90;;;;;;5090927;28;20222;-85
2021/11/12 00:18:23;;;;;;;34.70;21.00;;;3.90;99.90;;;;;;5090211;28;20289;-84
2021/11/12 00:20:51;;;;;;;28.50;20.63;;;3.90;99.90;;;;;;5099284;28;20244;-85
2021/11/12 00:23:19;;;;;;;28.87;20.10;;;3.90;99.90;;;;;;5100544;28;20434;-85
2021/11/12 00:25:47;;;;;;;38.57;20.97;;;4.00;99.90;;;;;;5111825;28;20191;-85
2021/11/12 00:28:16;;;;;;;27.33;19.93;;;4.00;99.90;;;;;;5111026;28;20199;-85
2021/11/12 00:39:29;;;;;;;31.10;20.17;;;4.20;99.90;;;;;;5111389;28;20217;-85
2021/11/12 00:41:47;;;;;;;29.10;19.37;;;4.10;99.90;;;;;;5103081;28;20210;-85
2021/11/12 00:46:50;;;;;;;25.70;18.70;;;4.20;99.90;;;;;;5107621;28;20183;-86
2021/11/12 00:49:20;;;;;;;24.40;18.27;;;4.30;99.90;;;;;;5098264;28;20190;-85
2021/11/12 00:51:50;;;;;;;31.57;18.87;;;4.30;99.90;;;;;;5101046;28;20187;-85
2021/11/12 00:54:19;;;;;;;25.23;18.77;;;4.30;99.90;;;;;;5098126;28;20199;-85
2021/11/12 00:56:51;;;;;;;24.23;18.67;;;4.30;99.90;;;;;;5099409;28;20226;-85
2021/11/12 00:59:18;;;;;;;24.07;18.07;;;4.40;99.90;;;;;;5100432;28;20240;-85
2021/11/12 01:01:45;;;;;;;27.77;18.77;;;4.50;99.90;;;;;;5098983;28;20195;-85
2021/11/12 01:04:16;;;;;;;26.27;18.33;;;4.60;99.90;;;;;;5097593;28;20183;-85
2021/11/12 01:06:42;;;;;;;27.73;19.20;;;4.70;99.80;;;;;;5100958;28;20210;-84
2021/11/12 01:09:14;;;;;;;24.37;18.10;;;4.70;99.30;;;;;;5093270;28;20201;-85
2021/11/12 01:11:42;;;;;;;25.07;18.63;;;4.80;99.10;;;;;;5102126;28;20206;-84
2021/11/12 01:14:11;;;;;;;24.60;18.20;;;4.80;98.70;;;;;;5107256;28;20184;-85
2021/11/12 01:16:36;;;;;;;24.57;17.37;;;4.90;98.40;;;;;;5099580;28;20225;-85
2021/11/12 01:19:03;;;;;;;26.60;18.53;;;4.90;98.80;;;;;;5098107;28;20860;-85
2021/11/12 01:21:29;;;;;;;25.33;17.37;;;4.90;97.90;;;;;;5097432;28;20210;-86
2021/11/12 01:23:56;;;;;;;26.33;18.00;;;4.70;98.50;;;;;;5099305;28;20194;-85
2021/11/12 01:26:25;;;;;;;22.90;16.23;;;4.70;99.40;;;;;;5100313;28;20187;-85
2021/11/12 01:28:52;;;;;;;26.37;17.47;;;4.70;99.60;;;;;;5098989;28;20287;-85
2021/11/12 01:31:28;;;;;;;27.03;17.80;;;4.70;99.20;;;;;;5098576;28;20281;-85
2021/11/12 01:33:56;;;;;;;22.17;16.30;;;4.60;99.30;;;;;;5099390;28;20186;-85
2021/11/12 01:36:31;;;;;;;23.93;15.33;;;4.60;99.70;;;;;;5094228;28;20211;-85
2021/11/12 01:39:00;;;;;;;26.00;16.90;;;4.60;99.80;;;;;;5097362;28;20578;-86
2021/11/12 01:41:26;;;;;;;30.33;17.73;;;4.60;99.10;;;;;;5099435;28;20183;-85
2021/11/12 01:43:57;;;;;;;26.00;18.23;;;4.40;99.90;;;;;;5095954;28;20191;-85
2021/11/12 01:49:04;;;;;;;23.03;16.73;;;4.40;99.90;;;;;;5094162;28;20203;-83
2021/11/12 01:56:37;;;;;;;24.87;18.00;;;4.30;99.20;;;;;;5095672;28;20303;-83
2021/11/12 02:01:44;;;;;;;23.63;17.23;;;4.50;99.30;;;;;;5100676;28;20203;-85
2021/11/12 02:04:11;;;;;;;24.80;18.10;;;4.30;99.90;;;;;;5092590;28;20246;-85
2021/11/12 02:06:38;;;;;;;22.60;16.57;;;4.40;99.90;;;;;;5091006;28;20179;-84
2021/11/12 02:09:17;;;;;;;23.50;16.90;;;4.40;99.30;;;;;;5105994;28;20186;-84
2021/11/12 02:11:45;;;;;;;22.73;16.50;;;4.50;99.50;;;;;;5110281;28;20198;-83
2021/11/12 02:14:13;;;;;;;22.00;16.13;;;4.30;99.00;;;;;;5107262;28;20191;-83
2021/11/12 02:16:44;;;;;;;23.00;16.13;;;4.20;99.70;;;;;;5106958;28;20308;-83
2021/11/12 02:19:11;;;;;;;24.67;16.53;;;4.20;99.90;;;;;;5100452;28;20651;-84
2021/11/12 02:24:13;;;;;;;24.03;16.13;;;4.30;99.50;;;;;;5098107;28;20570;-84
2021/11/12 02:26:45;;;;;;;21.00;14.97;;;4.20;99.40;;;;;;5100071;28;20179;-85
2021/11/12 02:29:12;;;;;;;18.53;14.37;;;4.20;99.90;;;;;;5098829;28;20229;-85
2021/11/12 02:31:38;;;;;;;22.60;15.93;;;4.20;99.90;;;;;;5091841;28;20282;-85
2021/11/12 02:34:11;;;;;;;21.47;14.83;;;4.10;99.90;;;;;;5104196;28;20186;-84
2021/11/12 02:36:38;;;;;;;20.83;14.40;;;4.30;99.90;;;;;;5110437;28;20198;-84
2021/11/12 02:39:07;;;;;;;21.13;15.00;;;4.20;99.30;;;;;;5106133;28;20209;-85
2021/11/12 02:41:33;;;;;;;20.37;15.20;;;4.20;99.90;;;;;;5108016;28;20187;-84
2021/11/12 02:44:00;;;;;;;19.57;14.40;;;4.30;99.70;;;;;;5099918;28;20691;-84
2021/11/12 02:46:27;;;;;;;21.87;16.20;;;4.30;99.90;;;;;;5096584;28;20289;-84
2021/11/12 02:48:54;;;;;;;19.43;15.10;;;4.40;99.20;;;;;;5094959;28;20217;-85
2021/11/12 02:51:27;;;;;;;16.77;13.77;;;4.40;99.00;;;;;;5099944;28;20190;-84
2021/11/12 02:53:55;;;;;;;22.23;16.13;;;4.50;99.20;;;;;;5098561;28;20551;-85
2021/11/12 02:59:02;;;;;;;20.53;15.37;;;4.50;98.40;;;;;;5093487;28;20301;-85
2021/11/12 03:01:30;;;;;;;21.33;15.07;;;4.50;97.70;;;;;;5112263;28;20181;-85
2021/11/12 03:03:56;;;;;;;18.93;14.33;;;4.40;97.50;;;;;;5093584;28;20240;-84
2021/11/12 03:06:23;;;;;;;19.27;15.30;;;4.40;98.40;;;;;;5096303;28;20194;-85
2021/11/12 03:08:50;;;;;;;20.73;15.57;;;4.40;99.10;;;;;;5093909;28;20271;-85
2021/11/12 03:11:16;;;;;;;19.13;15.00;;;4.30;99.40;;;;;;5099080;28;20190;-84
2021/11/12 03:13:45;;;;;;;20.63;14.60;;;4.40;99.70;;;;;;5095151;28;20190;-84
2021/11/12 03:16:12;;;;;;;18.37;14.57;;;4.30;99.00;;;;;;5103495;28;20264;-85
2021/11/12 03:18:38;;;;;;;20.07;15.03;;;4.30;99.80;;;;;;5099460;28;20207;-84
2021/11/12 03:21:04;;;;;;;25.30;15.47;;;4.40;99.10;;;;;;5090988;28;20268;-84
2021/11/12 03:23:38;;;;;;;22.80;16.47;;;4.30;97.70;;;;;;5096001;28;20195;-84
2021/11/12 03:28:52;;;;;;;23.90;17.37;;;4.10;99.40;;;;;;5094742;28;20207;-84
2021/11/12 04:30:37;;;;;;;24.00;15.50;;;3.80;99.90;;;;;;5101234;28;20688;-84
2021/11/12 05:11:49;;;;;;;19.57;14.53;;;3.90;99.90;;;;;;5065377;28;20290;-85
2021/11/12 05:50:18;;;;;;;15.93;11.80;;;3.70;99.90;;;;;;5091302;28;20198;-86
2021/11/12 05:55:28;;;;;;;16.10;12.17;;;3.70;99.90;;;;;;5095525;28;20201;-84
2021/11/12 05:57:54;;;;;;;15.77;11.97;;;3.70;99.90;;;;;;5100865;28;20210;-85
2021/11/12 06:00:20;;;;;;;18.63;12.17;;;3.70;99.70;;;;;;5103862;28;20199;-84
2021/11/12 06:02:46;;;;;;;16.00;12.60;;;3.60;99.50;;;;;;5105990;28;20187;-84
2021/11/12 06:05:12;;;;;;;14.53;11.17;;;3.40;99.90;;;;;;5101484;28;20186;-85
2021/11/12 06:07:38;;;;;;;15.77;11.07;;;3.50;99.90;;;;;;5102611;28;20262;-85
2021/11/12 06:10:05;;;;;;;14.43;10.87;;;3.40;99.90;;;;;;5103780;28;20191;-84
2021/11/12 06:12:31;;;;;;;14.13;10.77;;;3.70;99.90;;;;;;5097699;28;20194;-85
2021/11/12 06:14:57;;;;;;;12.93;11.00;;;3.80;99.60;;;;;;5105303;28;20194;-84
2021/11/12 06:17:23;;;;;;;14.30;10.67;;;3.80;99.00;;;;;;5105125;28;20222;-84
2021/11/12 06:19:49;;;;;;;16.67;11.27;;;3.60;99.20;;;;;;5103731;28;20214;-85
2021/11/12 06:22:14;;;;;;;20.13;12.17;;;3.50;99.90;;;;;;5101525;28;20801;-84
2021/11/12 06:24:40;;;;;;;15.70;11.93;;;3.50;99.80;;;;;;5106429;28;20194;-85
2021/11/12 06:27:07;;;;;;;18.80;12.67;;;3.40;99.90;;;;;;5105266;28;20222;-84
2021/11/12 06:29:34;;;;;;;16.77;11.53;;;3.40;99.90;;;;;;5100917;28;20222;-85
2021/11/12 06:32:00;;;;;;;14.07;10.97;;;3.20;99.90;;;;;;5105265;28;20190;-85
2021/11/12 06:34:28;;;;;;;13.23;10.40;;;3.30;99.90;;;;;;5101070;28;20274;-85
2021/11/12 06:36:54;;;;;;;13.93;10.53;;;3.30;99.90;;;;;;5101083;28;20218;-85
2021/11/12 06:39:20;;;;;;;14.20;10.50;;;3.30;99.90;;;;;;5100629;28;20734;-84
2021/11/12 06:49:39;;;;;;;13.60;10.43;;;3.50;99.90;;;;;;5086743;28;20221;-85
2021/11/12 06:52:06;;;;;;;12.80;10.83;;;3.60;99.60;;;;;;5085321;28;20183;-85
2021/11/12 06:54:32;;;;;;;12.10;9.77;;;3.60;99.40;;;;;;5092611;28;20691;-85
2021/11/12 06:56:58;;;;;;;15.13;10.60;;;3.70;99.90;;;;;;5101277;28;20215;-85
2021/11/12 06:59:25;;;;;;;13.20;10.33;;;3.60;98.20;;;;;;5099020;28;20228;-85
2021/11/12 07:01:52;;;;;;;12.73;9.77;;;3.70;98.70;;;;;;5101634;28;20216;-85
2021/11/12 07:04:19;;;;;;;13.73;10.53;;;3.70;98.20;;;;;;5099055;28;20187;-84
2021/11/12 07:06:45;;;;;;;13.93;10.63;;;3.80;98.30;;;;;;5094308;28;20199;-85
2021/11/12 07:09:11;;;;;;;12.70;10.77;;;3.80;96.80;;;;;;5104022;28;20191;-85
2021/11/12 07:11:37;;;;;;;14.37;10.77;;;3.80;96.40;;;;;;5095635;28;20278;-85
2021/11/12 07:14:04;;;;;;;19.10;10.90;;;3.50;98.30;;;;;;5099164;28;20635;-85
2021/11/12 07:16:31;;;;;;;14.60;11.03;;;3.50;98.00;;;;;;5095100;28;20270;-85
2021/11/12 07:18:57;;;;;;;12.10;10.77;;;3.50;99.00;;;;;;5094919;28;20207;-85
2021/11/12 07:21:24;;;;;;;12.40;10.27;;;3.50;99.30;;;;;;5092435;28;20574;-85
2021/11/12 07:23:50;;;;;;;14.30;11.03;;;3.50;99.00;;;;;;5092238;28;20187;-85
2021/11/12 07:26:17;;;;;;;13.97;10.77;;;3.40;99.40;;;;;;5098035;28;20538;-85
2021/11/12 07:28:48;;;;;;;12.43;10.40;;;3.40;99.60;;;;;;5105299;28;20230;-85
2021/11/12 07:31:16;;;;;;;11.70;10.47;;;3.40;98.50;;;;;;5108048;28;20195;-84
2021/11/12 07:33:44;;;;;;;15.63;11.07;;;3.40;99.50;;;;;;5096415;28;20191;-84
2021/11/12 07:36:19;;;;;;;12.37;9.70;;;3.30;99.50;;;;;;5094989;28;20248;-84
2021/11/12 07:48:36;;;;;;;13.63;10.73;;;3.60;98.00;;;;;;5095523;28;20218;-85
2021/11/12 07:51:02;;;;;;;15.23;11.97;;;3.40;97.80;;;;;;5097698;28;20214;-86
2021/11/12 07:53:28;;;;;;;14.57;11.27;;;3.20;99.50;;;;;;5103476;28;20194;-86
2021/11/12 07:55:54;;;;;;;12.10;9.47;;;3.20;99.90;;;;;;5097356;28;20195;-85
2021/11/12 07:58:21;;;;;;;13.20;10.93;;;3.40;99.50;;;;;;5094849;28;20218;-86
2021/11/12 08:00:47;;;;;;;15.10;11.70;;;3.60;99.30;;;;;;5096550;28;20187;-85
2021/11/12 08:03:18;;;;;;;18.30;13.43;;;3.70;98.70;;;;;;5091313;28;20206;-87
2021/11/12 08:05:48;;;;;;;18.07;12.57;;;3.70;98.50;;;;;;5091197;28;20194;-87
2021/11/12 08:08:16;;;;;;;17.87;13.50;;;3.60;98.10;;;;;;5094922;28;20214;-88
2021/11/12 08:11:32;;;;;;;14.30;12.03;;;3.60;98.40;;;;;;5096703;28;20191;-87
2021/11/12 08:16:13;;;;;;;18.03;13.50;;;4.00;97.10;;;;;;5090210;28;20571;-87
2021/11/12 08:18:49;;;;;;;16.83;12.77;;;4.10;97.20;;;;;;5092751;28;20218;-87
2021/11/12 08:21:28;;;;;;;19.40;13.57;;;4.20;96.00;;;;;;5090310;28;20179;-88
2021/11/12 08:34:37;;;;;;;19.30;14.93;;;3.70;97.60;;;;;;5084302;28;20213;-88
2021/11/12 08:37:18;;;;;;;18.63;14.63;;;3.60;98.50;;;;;;5084259;28;20689;-87
2021/11/12 08:42:17;;;;;;;15.53;12.83;;;3.40;99.90;;;;;;5088208;28;20252;-87
2021/11/12 08:44:48;;;;;;;25.77;15.87;;;3.60;99.90;;;;;;5080546;28;20291;-88
2021/11/12 08:47:25;;;;;;;18.07;13.17;;;3.50;99.20;;;;;;5085628;28;20214;-87
2021/11/12 08:49:53;;;;;;;20.50;15.20;;;3.50;99.90;;;;;;5085946;28;20197;-87
2021/11/12 08:52:24;;;;;;;22.40;15.47;;;3.40;99.90;;;;;;5089141;28;20183;-87
2021/11/12 08:54:49;;;;;;;17.50;13.77;;;3.50;99.90;;;;;;5089920;28;20247;-87
2021/11/12 08:57:16;;;;;;;18.77;14.23;;;3.60;99.90;;;;;;5086501;28;20572;-87
2021/11/12 08:59:50;;;;;;;21.40;15.93;;;3.80;99.90;;;;;;5090314;28;20187;-88
2021/11/12 09:02:23;;;;;;;20.67;15.87;;;3.90;99.10;;;;;;5095904;28;20244;-87
2021/11/12 09:04:49;;;;;;;23.07;16.60;;;3.80;99.20;;;;;;5090317;28;20179;-88
2021/11/12 09:07:17;;;;;;;20.63;15.53;;;3.60;99.10;;;;;;5094664;28;20210;-87
2021/11/12 09:09:44;;;;;;;21.53;15.90;;;3.60;99.90;;;;;;5094743;28;20198;-87
2021/11/12 09:12:12;;;;;;;20.33;15.47;;;3.60;99.90;;;;;;5071529;28;20210;-88
2021/11/12 09:14:45;;;;;;;23.80;17.37;;;3.80;99.90;;;;;;5077265;28;20250;-87
2021/11/12 09:17:11;;;;;;;21.60;15.67;;;3.60;99.90;;;;;;5076628;28;20309;-88
2021/11/12 09:19:52;;;;;;;20.90;15.47;;;3.40;99.90;;;;;;5094326;28;20270;-87
2021/11/12 09:22:21;;;;;;;23.30;14.77;;;3.60;99.90;;;;;;5085448;28;20440;-87
2021/11/12 09:24:48;;;;;;;20.87;14.83;;;3.60;99.80;;;;;;5110761;28;20186;-87
2021/11/12 09:27:15;;;;;;;25.43;17.27;;;3.70;98.70;;;;;;5115232;28;20211;-88
2021/11/12 09:29:42;;;;;;;20.67;14.43;;;3.70;98.60;;;;;;5105681;28;20536;-87
2021/11/12 09:32:09;;;;;;;19.87;14.63;;;3.80;99.40;;;;;;5106786;28;20186;-86
2021/11/12 09:34:37;;;;;;;19.67;14.63;;;3.80;98.70;;;;;;5096980;28;20295;-88
2021/11/12 09:37:05;;;;;;;18.47;15.07;;;3.80;99.80;;;;;;5083621;28;20218;-88
2021/11/12 09:39:32;;;;;;;20.67;15.40;;;3.70;99.00;;;;;;5093391;28;20211;-86
2021/11/12 09:41:59;;;;;;;23.03;16.10;;;3.50;99.90;;;;;;5093672;28;20263;-85
2021/11/12 09:44:26;;;;;;;22.60;15.30;;;3.40;99.90;;;;;;5088431;28;20214;-86
2021/11/12 09:46:53;;;;;;;24.83;17.77;;;3.20;99.90;;;;;;5096071;28;20369;-86
2021/11/12 09:49:19;;;;;;;21.33;16.03;;;3.10;99.90;;;;;;5111105;28;20183;-87
2021/11/12 09:51:46;;;;;;;25.33;16.10;;;3.00;99.90;;;;;;5108766;28;20252;-84
2021/11/12 09:54:11;;;;;;;20.23;16.53;;;3.00;99.90;;;;;;5110211;28;20209;-85
2021/11/12 09:56:40;;;;;;;18.53;14.57;;;3.10;99.90;;;;;;5113699;28;20210;-85
2021/11/12 09:59:06;;;;;;;17.27;14.03;;;3.50;99.90;;;;;;5110033;28;20231;-86
2021/11/12 10:01:36;;;;;;;20.10;16.40;;;3.70;99.90;;;;;;5100230;28;20217;-88
2021/11/12 10:04:08;;;;;;;21.53;15.73;;;3.90;99.60;;;;;;5091272;28;20793;-88
2021/11/12 10:06:39;;;;;;;21.27;16.43;;;4.00;99.00;;;;;;5086498;28;20198;-87
2021/11/12 10:09:16;;;;;;;20.83;15.23;;;4.10;97.60;;;;;;5089558;28;20194;-86
2021/11/12 10:11:59;;;;;;;20.67;15.60;;;4.10;97.10;;;;;;5087129;28;20221;-87
2021/11/12 10:17:13;;;;;;;19.37;14.77;;;3.90;98.70;;;;;;5089043;28;20218;-86
2021/11/12 10:19:43;;;;;;;22.63;17.97;;;3.90;98.80;;;;;;5089379;28;20343;-86
2021/11/12 10:22:09;;;;;;;24.63;17.00;;;3.90;98.90;;;;;;5091451;28;20215;-89
2021/11/12 10:24:40;;;;;;;21.37;16.37;;;3.90;98.70;;;;;;5090167;28;20198;-86
2021/11/12 10:27:21;;;;;;;21.10;15.57;;;4.00;98.40;;;;;;5097533;28;20323;-86
2021/11/12 10:29:52;;;;;;;21.57;15.33;;;3.90;99.20;;;;;;5087835;28;20190;-85
2021/11/12 10:32:23;;;;;;;20.00;14.63;;;3.80;98.80;;;;;;5090702;28;20215;-87
2021/11/12 10:35:02;;;;;;;21.97;15.70;;;3.90;99.30;;;;;;5092381;28;20197;-86
2021/11/12 10:37:34;;;;;;;18.37;14.27;;;3.80;98.30;;;;;;5092879;28;20263;-86
2021/11/12 10:40:08;;;;;;;18.07;13.53;;;3.80;99.30;;;;;;5085537;28;20194;-86
2021/11/12 10:42:47;;;;;;;17.97;13.67;;;3.90;98.10;;;;;;5092257;28;20210;-86
2021/11/12 10:45:20;;;;;;;16.63;13.23;;;3.80;97.30;;;;;;5096057;28;20218;-86
2021/11/12 10:47:53;;;;;;;17.80;14.17;;;3.80;98.10;;;;;;5094335;28;20238;-88
2021/11/12 10:50:21;;;;;;;18.27;15.83;;;3.90;98.70;;;;;;5096697;28;20191;-86
2021/11/12 10:52:49;;;;;;;18.90;14.93;;;3.90;98.80;;;;;;5095033;28;20214;-87
2021/11/12 10:55:23;;;;;;;16.17;14.33;;;4.00;97.80;;;;;;5078978;28;20191;-86
2021/11/12 10:58:00;;;;;;;16.37;13.27;;;4.00;96.80;;;;;;5094864;28;20264;-87
2021/11/12 11:00:30;;;;;;;17.43;13.57;;;4.00;97.00;;;;;;5092154;28;20182;-86
2021/11/12 11:03:08;;;;;;;15.97;13.37;;;4.10;97.60;;;;;;5097686;28;20179;-88
2021/11/12 11:05:40;;;;;;;16.37;13.43;;;4.10;96.20;;;;;;5093091;28;20191;-86
2021/11/12 11:08:24;;;;;;;16.90;12.73;;;4.00;96.30;;;;;;5093258;28;20214;-86
2021/11/12 11:10:56;;;;;;;15.60;12.80;;;4.10;96.20;;;;;;5089802;28;20671;-87
2021/11/12 11:13:35;;;;;;;16.53;13.43;;;4.00;96.70;;;;;;5091296;28;20198;-87
2021/11/12 11:16:05;;;;;;;17.70;15.03;;;3.80;97.60;;;;;;5090940;28;20210;-87
2021/11/12 11:18:40;;;;;;;19.37;17.47;;;3.80;99.10;;;;;;5087270;28;20225;-87
2021/11/12 11:21:24;;;;;;;19.70;15.70;;;4.00;98.30;;;;;;5082538;28;20248;-87
2021/11/12 11:23:59;;;;;;;18.13;15.10;;;4.20;97.70;;;;;;5085245;28;20179;-88
2021/11/12 11:26:37;;;;;;;22.13;16.17;;;4.20;97.70;;;;;;5093173;28;20186;-88
2021/11/12 11:29:04;;;;;;;19.63;14.77;;;4.30;98.40;;;;;;5103931;28;20214;-87
2021/11/12 11:31:32;;;;;;;17.47;15.00;;;4.10;97.40;;;;;;5095875;28;20194;-88
2021/11/12 11:33:59;;;;;;;17.93;15.33;;;3.90;98.80;;;;;;5083343;28;20203;-88
2021/11/12 11:36:27;;;;;;;20.57;16.47;;;3.90;99.90;;;;;;5090179;28;20215;-87
2021/11/12 11:38:55;;;;;;;21.03;17.03;;;3.80;99.00;;;;;;5078426;28;20211;-88
2021/11/12 11:41:23;;;;;;;20.10;15.83;;;3.70;99.90;;;;;;5084048;28;20186;-88
2021/11/12 11:43:49;;;;;;;20.60;16.37;;;3.90;99.10;;;;;;5077139;28;20175;-88
2021/11/12 11:46:38;;;;;;;20.87;16.80;;;3.90;99.80;;;;;;5082747;28;20187;-88
2021/11/12 11:49:13;;;;;;;21.73;17.07;;;3.90;99.00;;;;;;5095002;28;20190;-88
2021/11/12 11:51:59;;;;;;;20.93;16.33;;;3.90;99.00;;;;;;5096288;28;20250;-88
2021/11/12 11:54:34;;;;;;;20.23;15.43;;;3.80;99.90;;;;;;5096235;28;20183;-88
2021/11/12 11:57:15;;;;;;;19.50;16.07;;;3.90;99.60;;;;;;5082734;28;20261;-89
2021/11/12 11:59:41;;;;;;;25.50;17.43;;;3.90;99.50;;;;;;5087856;28;20280;-88
2021/11/12 12:02:15;;;;;;;22.13;18.17;;;3.70;99.90;;;;;;5091613;28;20186;-88
2021/11/12 12:04:46;;;;;;;21.73;16.90;;;3.60;99.90;;;;;;5095284;28;20190;-88
2021/11/12 12:07:16;;;;;;;22.03;16.77;;;3.70;99.90;;;;;;5095253;28;20246;-88
2021/11/12 12:09:50;;;;;;;22.27;17.27;;;3.80;99.90;;;;;;5087338;28;20240;-88
2021/11/12 12:12:34;;;;;;;19.70;16.23;;;3.90;99.50;;;;;;5093607;28;20200;-88
2021/11/12 12:15:12;;;;;;;22.77;16.17;;;3.80;99.90;;;;;;5092057;28;20187;-89
2021/11/12 12:17:41;;;;;;;19.83;16.13;;;4.00;99.40;;;;;;5095100;28;20210;-88
2021/11/12 13:25:59;;;;;;;26.10;21.97;;;4.50;97.70;;;;;;5099821;28;20222;-87
2021/11/12 13:28:29;;;;;;;28.60;20.30;;;4.50;98.30;;;;;;5079864;28;20212;-88
2021/11/12 13:30:56;;;;;;;23.77;18.73;;;4.30;98.70;;;;;;5079067;28;20585;-87
2021/11/12 13:33:49;;;;;;;22.47;17.80;;;4.00;99.90;;;;;;5076583;28;20282;-87
2021/11/12 13:36:37;;;;;;;24.77;18.90;;;4.10;99.90;;;;;;5085121;28;20195;-90
2021/11/12 13:39:05;;;;;;;25.03;19.03;;;4.10;99.90;;;;;;5076121;28;20629;-90
2021/11/12 13:41:42;;;;;;;25.70;19.20;;;4.10;99.90;;;;;;5089732;28;20259;-91
2021/11/12 13:44:19;;;;;;;21.90;17.50;;;4.10;99.90;;;;;;5093670;28;20624;-89
2021/11/12 13:46:57;;;;;;;27.67;18.87;;;3.90;99.90;;;;;;5093363;28;20187;-90
2021/11/12 13:49:34;;;;;;;24.87;18.43;;;4.00;99.90;;;;;;5090683;28;20237;-88
2021/11/12 13:52:12;;;;;;;25.80;19.87;;;3.70;99.90;;;;;;5094579;28;20721;-87
2021/11/12 13:54:54;;;;;;;25.17;19.33;;;3.50;99.90;;;;;;5097030;28;20190;-87
2021/11/12 13:57:23;;;;;;;26.93;20.33;;;3.50;99.90;;;;;;5094866;28;20573;-88
2021/11/12 14:00:01;;;;;;;32.43;22.33;;;3.50;99.90;;;;;;5088079;28;20214;-88
2021/11/12 14:02:52;;;;;;;31.57;21.13;;;3.50;99.90;;;;;;5087619;28;20269;-87
2021/11/12 14:05:19;;;;;;;29.93;22.00;;;3.50;99.90;;;;;;5074403;28;20239;-87
2021/11/12 14:07:45;;;;;;;28.23;20.57;;;3.50;99.90;;;;;;5091433;28;20215;-87
2021/11/12 14:10:20;;;;;;;30.43;21.77;;;3.60;99.90;;;;;;5087546;28;20260;-88
2021/11/12 14:13:15;;;;;;;29.37;19.73;;;3.80;99.90;;;;;;5092275;28;20247;-86
2021/11/12 14:15:48;;;;;;;29.07;21.00;;;3.90;99.90;;;;;;5091393;28;20215;-87
2021/11/12 14:29:16;;;;;;;28.73;20.77;;;3.80;99.90;;;;;;5090956;28;20265;-86
2021/11/12 14:34:54;;;;;;;30.17;21.17;;;4.00;99.90;;;;;;5085593;28;20234;-86
2021/11/12 14:37:39;;;;;;;33.67;21.37;;;4.10;99.90;;;;;;5106487;28;20198;-86
2021/11/12 14:40:11;;;;;;;28.23;20.63;;;4.20;99.90;;;;;;5107671;28;20203;-86
2021/11/12 14:43:03;;;;;;;28.93;21.53;;;3.80;99.90;;;;;;5092194;28;20602;-86
2021/11/12 14:45:44;;;;;;;31.70;22.03;;;3.80;99.90;;;;;;5090304;28;20175;-86
2021/11/12 14:51:10;;;;;;;28.53;21.13;;;3.60;99.90;;;;;;5086706;28;20243;-85
2021/11/12 14:56:16;;;;;;;30.67;21.43;;;3.70;99.90;;;;;;5085488;28;20190;-86
2021/11/12 14:58:46;;;;;;;30.00;21.67;;;3.80;99.90;;;;;;5089555;28;20321;-86
2021/11/12 15:01:18;;;;;;;33.50;22.53;;;3.70;99.90;;;;;;5089225;28;20339;-86
2021/11/12 15:03:45;;;;;;;31.10;22.43;;;3.50;99.90;;;;;;5106607;28;20187;-86
2021/11/12 15:06:13;;;;;;;39.23;24.37;;;3.60;99.90;;;;;;5095188;28;20228;-86
2021/11/12 15:08:45;;;;;;;35.47;22.33;;;3.80;99.90;;;;;;5087233;28;20289;-86
2021/11/12 15:11:12;;;;;;;33.40;22.80;;;3.90;99.90;;;;;;5088515;28;20245;-86
2021/11/12 15:13:39;;;;;;;38.60;31.77;;;4.00;99.90;;;;;;5088129;28;20266;-86
2021/11/12 15:16:19;;;;;;;35.30;24.20;;;4.00;99.90;;;;;;5084663;28;20214;-86
2021/11/12 15:18:45;;;;;;;34.53;23.67;;;4.00;99.90;;;;;;5089800;28;20250;-86
2021/11/12 15:31:48;;;;;;;36.43;22.57;;;3.30;99.90;;;;;;5088990;28;20740;-87
2021/11/12 15:34:15;;;;;;;40.33;23.90;;;3.20;99.90;;;;;;5087061;28;20203;-86
2021/11/12 15:36:58;;;;;;;29.87;20.30;;;3.30;99.90;;;;;;5085046;28;20295;-87
2021/11/12 15:44:44;;;;;;;32.50;20.80;;;3.70;99.90;;;;;;5087910;28;20190;-87
2021/11/12 15:47:22;;;;;;;32.90;21.87;;;3.90;99.90;;;;;;5082282;28;20213;-87
2021/11/12 15:49:51;;;;;;;34.73;22.07;;;4.00;99.90;;;;;;5083912;28;20671;-86
2021/11/12 15:52:23;;;;;;;31.53;20.93;;;3.90;99.90;;;;;;5088651;28;20262;-86
2021/11/12 15:57:56;;;;;;;34.80;22.80;;;4.10;99.90;;;;;;5081621;28;20271;-86
2021/11/12 16:08:27;;;;;;;42.80;24.97;;;4.00;99.90;;;;;;5088014;28;20221;-86
2021/11/12 16:13:22;;;;;;;33.93;23.23;;;3.60;99.90;;;;;;5090884;28;20194;-86
2021/11/12 16:18:53;;;;;;;33.43;23.80;;;3.90;99.90;;;;;;5085505;28;20234;-86
2021/11/12 16:23:59;;;;;;;33.77;22.57;;;4.10;99.90;;;;;;5090353;28;20212;-86
2021/11/12 16:26:30;;;;;;;29.77;21.03;;;4.20;99.90;;;;;;5093532;28;20209;-86
2021/11/12 16:31:24;;;;;;;36.20;23.50;;;4.30;99.90;;;;;;5091272;28;20192;-86
2021/11/12 16:33:50;;;;;;;28.07;20.60;;;4.30;99.90;;;;;;5089860;28;20182;-86
2021/11/12 16:36:16;;;;;;;34.47;22.60;;;4.30;99.90;;;;;;5070341;28;20195;-86
2021/11/12 16:38:42;;;;;;;35.47;24.10;;;4.50;99.90;;;;;;5083618;28;20287;-86
2021/11/12 16:41:19;;;;;;;32.57;22.03;;;4.50;99.90;;;;;;5090995;28;20179;-86
2021/11/12 16:46:45;;;;;;;37.30;24.00;;;4.20;99.90;;;;;;5088013;28;20335;-85
2021/11/12 16:49:26;;;;;;;32.53;22.60;;;4.10;99.90;;;;;;5087746;28;20202;-86
2021/11/12 16:54:31;;;;;;;32.20;22.13;;;4.20;99.90;;;;;;5087379;28;20612;-85
2021/11/12 17:03:01;;;;;;;32.53;22.47;;;4.40;99.90;;;;;;5033061;28;20208;-86
2021/11/12 17:10:28;;;;;;;27.50;19.13;;;4.30;99.90;;;;;;5101510;28;20203;-85
2021/11/12 17:13:07;;;;;;;29.27;19.97;;;4.30;99.90;;;;;;5108128;28;20247;-85
2021/11/12 17:18:27;;;;;;;28.13;19.97;;;4.20;99.90;;;;;;5082247;28;20676;-85
2021/11/12 17:47:39;;;;;;;31.20;21.30;;;3.50;99.90;;;;;;5103320;28;20224;-85
2021/11/12 21:48:02;;;;;;;29.87;16.83;;;2.70;99.90;;;;;;5094203;28;20687;-87
2021/11/12 21:50:30;;;;;;;34.47;17.77;;;2.70;99.90;;;;;;5086141;28;20190;-86
2021/11/12 21:52:55;;;;;;;33.20;16.97;;;2.70;99.90;;;;;;5089345;28;20192;-87
2021/11/12 21:55:21;;;;;;;31.67;16.87;;;2.60;99.90;;;;;;5097124;28;20195;-87
2021/11/12 21:57:47;;;;;;;24.63;16.07;;;2.80;99.90;;;;;;5095937;28;20240;-87
2021/11/12 22:00:14;;;;;;;20.53;15.10;;;2.90;99.90;;;;;;5090133;28;20221;-86
2021/11/12 22:02:40;;;;;;;30.33;16.37;;;2.90;99.90;;;;;;5089527;28;20191;-86
2021/11/12 22:05:06;;;;;;;23.13;16.77;;;3.00;99.90;;;;;;5091511;28;20183;-86
2021/11/12 22:07:32;;;;;;;40.23;16.50;;;2.90;99.90;;;;;;5096624;28;20218;-86
2021/11/12 22:09:58;;;;;;;32.93;16.47;;;2.80;99.90;;;;;;5090688;28;20191;-87
2021/11/12 22:12:24;;;;;;;41.13;17.93;;;2.80;99.90;;;;;;5098049;28;20213;-86
2021/11/12 22:14:50;;;;;;;31.03;18.07;;;2.80;99.90;;;;;;5090983;28;20195;-86
2021/11/12 22:17:16;;;;;;;31.67;17.30;;;2.80;99.90;;;;;;5081374;28;20775;-87
2021/11/12 22:19:41;;;;;;;36.67;17.73;;;2.70;99.90;;;;;;5100435;28;20171;-86
2021/11/12 22:22:07;;;;;;;22.63;16.70;;;2.70;99.90;;;;;;5110265;28;20225;-86
2021/11/12 22:24:33;;;;;;;31.03;16.87;;;2.80;99.90;;;;;;5091517;28;20213;-86
2021/11/12 22:26:59;;;;;;;25.90;15.87;;;2.70;99.90;;;;;;5093349;28;20191;-86
2021/11/12 22:29:25;;;;;;;17.70;13.53;;;2.80;99.90;;;;;;5088175;28;20198;-86
2021/11/12 22:31:51;;;;;;;19.37;14.73;;;2.80;99.90;;;;;;5087932;28;20537;-86
2021/11/12 22:34:16;;;;;;;16.60;13.90;;;2.90;99.90;;;;;;5096405;28;20187;-87
2021/11/12 22:36:42;;;;;;;21.63;14.43;;;2.90;99.90;;;;;;5079482;28;20225;-86
2021/11/12 22:39:11;;;;;;;21.40;13.90;;;2.90;99.90;;;;;;5096514;28;20215;-87
2021/11/12 22:41:37;;;;;;;18.67;14.53;;;2.90;99.90;;;;;;5089226;28;20268;-87
2021/11/12 22:44:05;;;;;;;17.43;13.37;;;2.80;99.90;;;;;;5099966;28;20194;-87
2021/11/12 22:46:31;;;;;;;17.57;13.10;;;2.90;99.90;;;;;;5096551;28;20190;-87
2021/11/12 22:48:57;;;;;;;21.43;14.47;;;2.90;99.90;;;;;;5078568;28;20301;-87
2021/11/12 22:51:24;;;;;;;18.20;14.23;;;3.00;99.90;;;;;;5092436;28;20289;-87
2021/11/12 22:53:50;;;;;;;22.80;13.43;;;2.90;99.90;;;;;;5092899;28;20187;-87
2021/11/12 22:56:16;;;;;;;19.80;14.17;;;2.90;99.90;;;;;;5099367;28;20269;-88
2021/11/12 22:58:42;;;;;;;19.70;14.37;;;2.90;99.90;;;;;;5099144;28;20222;-87
2021/11/12 23:01:15;;;;;;;21.63;13.67;;;3.00;99.90;;;;;;5104111;28;20186;-87
2021/11/12 23:03:42;;;;;;;22.40;14.17;;;3.00;99.90;;;;;;5101723;28;20190;-87
2021/11/12 23:06:08;;;;;;;19.07;13.40;;;2.90;99.90;;;;;;5084155;28;20739;-86
2021/11/12 23:08:35;;;;;;;20.03;13.93;;;2.90;99.90;;;;;;5103997;28;20217;-86
2021/11/12 23:11:01;;;;;;;21.97;14.00;;;2.80;99.90;;;;;;5098705;28;20210;-87
2021/11/12 23:13:28;;;;;;;16.47;13.63;;;2.90;99.90;;;;;;5098519;28;20663;-87